createdAt,value
2022-08-09T00:01:16.351Z,5.53
2022-08-09T00:04:08.481Z,4.85
2022-08-09T00:06:46.408Z,5.32
2022-08-09T00:13:40.854Z,3.67
2022-08-09T00:16:14.897Z,4.10
2022-08-09T00:19:02.184Z,4.30
2022-08-09T00:21:56.764Z,5.78
2022-08-09T00:24:32.201Z,5.88
2022-08-09T00:27:06.370Z,5.10
2022-08-09T00:30:16.396Z,4.47
2022-08-09T00:32:34.410Z,5.30
2022-08-09T00:35:10.999Z,3.15
2022-08-09T00:37:45.148Z,5.47
2022-08-09T00:40:19.954Z,4.07
2022-08-09T00:44:16.317Z,4.78
2022-08-09T00:45:53.722Z,6.60
2022-08-09T00:48:28.322Z,5.47
2022-08-09T00:51:11.850Z,4.10
2022-08-09T00:53:48.133Z,4.43
2022-08-09T00:56:26.919Z,4.63
2022-08-09T00:59:00.939Z,3.22
2022-08-09T01:01:44.238Z,4.00
2022-08-09T01:04:27.674Z,6.68
2022-08-09T01:07:13.868Z,4.05
2022-08-09T01:10:00.853Z,4.60
2022-08-09T01:12:42.226Z,4.28
2022-08-09T01:15:20.560Z,6.60
2022-08-09T01:18:00.749Z,5.32
2022-08-09T01:20:42.563Z,3.80
2022-08-09T01:24:01.699Z,3.97
2022-08-09T01:26:53.046Z,3.67
2022-08-09T01:29:41.206Z,4.03
2022-08-09T01:32:34.069Z,4.43
2022-08-09T01:35:28.444Z,5.43
2022-08-09T01:38:14.840Z,3.20
2022-08-09T01:41:05.156Z,5.10
2022-08-09T01:43:51.660Z,4.55
2022-08-09T01:46:29.645Z,5.43
2022-08-09T01:49:10.850Z,4.32
2022-08-09T01:51:53.343Z,5.00
2022-08-09T01:54:33.312Z,6.88
2022-08-09T01:57:20.744Z,4.65
2022-08-09T02:00:09.031Z,5.55
2022-08-09T02:02:55.625Z,6.50
2022-08-09T02:05:38.068Z,5.38
2022-08-09T02:08:41.015Z,5.47
2022-08-09T02:11:21.521Z,4.45
2022-08-09T02:14:07.020Z,4.60
2022-08-09T02:16:53.168Z,5.53
2022-08-09T02:19:38.878Z,5.10
2022-08-09T02:22:31.646Z,4.60
2022-08-09T02:25:15.416Z,4.07
2022-08-09T02:28:03.903Z,5.43
2022-08-09T02:30:42.963Z,5.25
2022-08-09T02:33:38.208Z,3.50
2022-08-09T02:36:23.688Z,7.28
2022-08-09T02:39:05.393Z,3.50
2022-08-09T02:41:45.253Z,5.07
2022-08-09T02:44:30.361Z,6.55
2022-08-09T02:47:08.069Z,3.80
2022-08-09T02:50:01.360Z,4.88
2022-08-09T02:52:41.217Z,3.95
2022-08-09T02:55:20.718Z,5.53
2022-08-09T02:58:00.612Z,6.85
2022-08-09T03:00:58.397Z,8.45
2022-08-09T03:04:05.737Z,5.28
2022-08-09T03:06:32.011Z,4.13
2022-08-09T03:09:09.236Z,8.18
2022-08-09T03:12:10.428Z,3.47
2022-08-09T03:14:39.316Z,4.32
2022-08-09T03:17:26.422Z,4.57
2022-08-09T03:20:05.199Z,5.45
2022-08-09T03:22:56.995Z,6.43
2022-08-09T03:25:57.826Z,4.60
2022-08-09T03:28:28.137Z,5.05
2022-08-09T03:31:10.019Z,4.40
2022-08-09T03:33:58.074Z,5.03
2022-08-09T03:36:33.089Z,5.78
2022-08-09T03:39:09.474Z,3.78
2022-08-09T03:41:45.839Z,4.10
2022-08-09T03:44:27.713Z,4.68
2022-08-09T03:47:07.149Z,4.72
2022-08-09T03:49:58.409Z,6.13
2022-08-09T03:52:34.115Z,6.32
2022-08-09T03:55:14.412Z,4.97
2022-08-09T03:58:03.341Z,5.22
2022-08-09T04:00:41.288Z,3.55
2022-08-09T04:03:25.015Z,4.38
2022-08-09T04:06:11.845Z,5.20
2022-08-09T04:08:46.731Z,4.47
2022-08-09T04:11:22.544Z,3.92
2022-08-09T04:14:52.832Z,4.30
2022-08-09T04:16:52.973Z,6.65
2022-08-09T04:19:51.056Z,6.50
2022-08-09T04:22:25.381Z,6.55
2022-08-09T04:25:03.063Z,5.88
2022-08-09T04:27:42.424Z,6.20
2022-08-09T04:30:26.153Z,3.80
2022-08-09T04:33:02.872Z,4.30
2022-08-09T04:35:40.217Z,4.80
2022-08-09T04:38:16.562Z,4.05
2022-08-09T04:40:56.277Z,5.35
2022-08-09T04:43:35.753Z,7.63
2022-08-09T04:46:19.398Z,4.72
2022-08-09T04:49:06.845Z,5.30
2022-08-09T04:51:42.263Z,4.65
2022-08-09T04:54:16.274Z,5.35
2022-08-09T04:56:50.372Z,7.35
2022-08-09T04:59:26.502Z,5.22
2022-08-09T05:02:04.472Z,5.60
2022-08-09T05:04:40.493Z,6.03
2022-08-09T05:07:19.202Z,7.55
2022-08-09T05:09:54.049Z,4.22
2022-08-09T05:12:30.092Z,5.13
2022-08-09T05:15:11.783Z,5.72
2022-08-09T05:18:42.044Z,14.10
2022-08-09T05:20:55.963Z,14.52
2022-08-09T05:23:54.935Z,9.15
2022-08-09T05:26:37.413Z,10.70
2022-08-09T05:29:21.692Z,12.07
2022-08-09T05:32:00.537Z,8.27
2022-08-09T05:34:34.825Z,12.40
2022-08-09T05:37:11.561Z,12.48
2022-08-09T05:39:46.009Z,10.90
2022-08-09T05:42:21.820Z,6.60
2022-08-09T05:44:57.230Z,10.48
2022-08-09T05:47:35.896Z,9.18
2022-08-09T05:50:36.052Z,13.27
2022-08-09T05:53:21.647Z,11.05
2022-08-09T05:56:07.146Z,7.80
2022-08-09T05:58:41.766Z,10.73
2022-08-09T06:01:18.991Z,14.77
2022-08-09T06:03:58.448Z,10.73
2022-08-09T06:06:33.150Z,11.98
2022-08-09T06:09:10.048Z,12.45
2022-08-09T06:12:02.126Z,11.35
2022-08-09T06:14:36.362Z,10.55
2022-08-09T06:17:10.410Z,9.13
2022-08-09T06:19:46.101Z,11.30
2022-08-09T06:22:25.938Z,6.57
2022-08-09T06:25:03.179Z,8.88
2022-08-09T06:27:42.201Z,7.65
2022-08-09T06:30:17.630Z,7.00
2022-08-09T06:33:13.081Z,7.50
2022-08-09T06:35:57.656Z,10.43
2022-08-09T06:38:37.661Z,11.20
2022-08-09T06:41:18.844Z,12.05
2022-08-09T06:43:54.575Z,10.77
2022-08-09T06:46:40.348Z,6.00
2022-08-09T06:49:16.173Z,10.68
2022-08-09T06:52:05.676Z,8.13
2022-08-09T06:54:42.198Z,11.52
2022-08-09T06:57:17.584Z,8.95
2022-08-09T07:00:49.453Z,17.02
2022-08-09T07:02:53.907Z,10.77
2022-08-09T07:06:02.317Z,5.53
2022-08-09T07:08:24.808Z,4.95
2022-08-09T07:10:58.914Z,6.00
2022-08-09T07:13:45.552Z,8.35
2022-08-09T07:16:42.128Z,5.78
2022-08-09T07:19:23.446Z,7.90
2022-08-09T07:21:59.105Z,6.70
2022-08-09T07:24:39.916Z,5.43
2022-08-09T07:27:26.986Z,5.70
2022-08-09T07:30:08.778Z,4.03
2022-08-09T07:32:43.885Z,6.30
2022-08-09T07:35:20.127Z,7.43
2022-08-09T07:37:59.358Z,5.18
2022-08-09T07:41:00.529Z,4.18
2022-08-09T07:43:29.217Z,6.15
2022-08-09T07:46:03.572Z,6.00
2022-08-09T07:48:39.243Z,4.05
2022-08-09T07:52:03.437Z,5.18
2022-08-09T07:54:08.667Z,6.60
2022-08-09T07:56:44.913Z,7.63
2022-08-09T07:59:33.630Z,6.32
2022-08-09T08:02:19.738Z,6.15
2022-08-09T08:04:54.056Z,7.00
2022-08-09T08:08:43.055Z,5.78
2022-08-09T08:10:22.481Z,6.97
2022-08-09T08:13:03.874Z,7.18
2022-08-09T08:15:39.444Z,7.40
2022-08-09T08:18:14.414Z,6.38
2022-08-09T08:20:48.764Z,6.28
2022-08-09T08:23:22.960Z,5.10
2022-08-09T08:26:06.432Z,7.47
2022-08-09T08:28:43.734Z,6.18
2022-08-09T08:31:18.677Z,3.85
2022-08-09T08:33:55.865Z,4.28
2022-08-09T08:36:30.811Z,3.83
2022-08-09T08:39:06.124Z,3.28
2022-08-09T08:41:51.860Z,3.90
2022-08-09T08:44:31.005Z,4.68
2022-08-09T08:47:12.788Z,6.32
2022-08-09T08:49:49.465Z,4.28
2022-08-09T08:55:23.458Z,5.00
2022-08-09T08:57:58.643Z,5.13
2022-08-09T09:00:34.840Z,6.20
2022-08-09T09:03:16.218Z,5.13
2022-08-09T09:05:58.134Z,3.38
2022-08-09T09:08:40.213Z,5.53
2022-08-09T09:11:19.821Z,5.90
2022-08-09T09:13:58.573Z,4.03
2022-08-09T09:16:35.575Z,5.88
2022-08-09T09:19:36.949Z,6.75
2022-08-09T09:22:11.406Z,5.30
2022-08-09T09:24:48.229Z,3.10
2022-08-09T09:28:06.482Z,4.63
2022-08-09T09:30:41.178Z,3.35
2022-08-09T09:33:17.880Z,5.32
2022-08-09T09:36:02.028Z,4.30
2022-08-09T09:38:44.092Z,7.00
2022-08-09T09:41:48.885Z,4.35
2022-08-09T09:44:31.451Z,4.25
2022-08-09T09:47:09.129Z,5.60
2022-08-09T09:50:14.613Z,4.65
2022-08-09T09:52:54.439Z,5.05
2022-08-09T09:55:33.239Z,3.60
2022-08-09T09:58:18.101Z,5.68
2022-08-09T10:00:58.885Z,6.35
2022-08-09T10:03:43.879Z,2.53
2022-08-09T10:06:22.468Z,6.75
2022-08-09T10:09:21.878Z,3.63
2022-08-09T10:12:14.176Z,5.75
2022-08-09T10:15:07.338Z,8.82
2022-08-09T10:17:56.684Z,6.95
2022-08-09T10:20:35.499Z,7.05
2022-08-09T10:23:20.504Z,3.15
2022-08-09T10:26:07.541Z,3.25
2022-08-09T10:28:48.992Z,3.25
2022-08-09T10:32:35.772Z,2.25
2022-08-09T10:34:36.001Z,6.35
2022-08-09T10:37:13.805Z,4.28
2022-08-09T10:39:50.265Z,3.80
2022-08-09T10:42:26.989Z,2.13
2022-08-09T10:45:04.210Z,3.80
2022-08-09T10:48:16.848Z,5.35
2022-08-09T10:51:15.029Z,2.72
2022-08-09T10:53:58.685Z,4.40
2022-08-09T10:56:41.150Z,3.55
2022-08-09T10:59:43.255Z,3.15
2022-08-09T11:03:16.209Z,3.08
2022-08-09T11:05:33.655Z,5.60
2022-08-09T11:08:43.811Z,3.97
2022-08-09T11:11:23.391Z,7.78
2022-08-09T11:14:35.461Z,3.25
2022-08-09T11:18:02.860Z,2.75
2022-08-09T11:20:49.668Z,2.60
2022-08-09T11:23:30.239Z,2.60
2022-08-09T11:26:04.449Z,2.05
2022-08-09T11:28:56.399Z,3.13
2022-08-09T11:31:55.007Z,2.63
2022-08-09T11:34:43.058Z,3.08
2022-08-09T11:37:28.044Z,1.83
2022-08-09T11:40:17.933Z,3.30
2022-08-09T11:42:54.261Z,3.70
2022-08-09T11:45:42.712Z,4.18
2022-08-09T11:48:26.524Z,3.20
2022-08-09T11:52:49.359Z,2.97
2022-08-09T11:54:27.770Z,2.95
2022-08-09T11:58:00.005Z,3.05
2022-08-09T12:00:35.985Z,3.15
2022-08-09T12:03:50.423Z,3.65
2022-08-09T12:06:16.941Z,3.47
2022-08-09T12:08:53.037Z,2.53
2022-08-09T12:11:28.705Z,3.45
2022-08-09T12:14:12.357Z,3.58
2022-08-09T12:16:53.464Z,3.65
2022-08-09T12:19:32.260Z,2.38
2022-08-09T12:22:08.339Z,4.00
2022-08-09T12:24:44.579Z,7.30
2022-08-09T12:29:11.739Z,2.47
2022-08-09T12:30:36.202Z,3.60
2022-08-09T12:33:11.462Z,2.42
2022-08-09T12:35:51.455Z,3.08
2022-08-09T12:38:38.177Z,3.10
2022-08-09T12:41:12.956Z,2.83
2022-08-09T12:44:05.283Z,1.70
2022-08-09T12:46:43.441Z,2.65
2022-08-09T12:49:23.612Z,2.58
2022-08-09T12:52:02.039Z,3.58
2022-08-09T12:56:11.478Z,2.78
2022-08-09T12:57:48.179Z,2.03
2022-08-09T13:00:25.673Z,2.17
2022-08-09T13:03:02.849Z,3.58
2022-08-09T13:05:52.459Z,5.07
2022-08-09T13:09:00.959Z,5.63
2022-08-09T13:11:42.341Z,3.45
2022-08-09T13:14:41.540Z,3.22
2022-08-09T13:17:43.768Z,3.63
2022-08-09T13:20:18.896Z,2.50
2022-08-09T13:23:01.134Z,2.95
2022-08-09T13:25:42.488Z,4.90
2022-08-09T13:28:33.881Z,4.88
2022-08-09T13:32:14.294Z,3.72
2022-08-09T13:34:04.683Z,2.42
2022-08-09T13:36:43.164Z,3.10
2022-08-09T13:41:17.395Z,2.83
2022-08-09T13:42:13.500Z,2.70
2022-08-09T13:44:49.229Z,2.65
2022-08-09T13:47:33.247Z,4.32
2022-08-09T13:50:30.723Z,2.78
2022-08-09T13:53:05.442Z,3.05
2022-08-09T13:55:42.176Z,3.90
2022-08-09T13:58:18.858Z,3.58
2022-08-09T14:00:54.845Z,3.17
2022-08-09T14:04:02.197Z,7.43
2022-08-09T14:06:26.761Z,3.88
2022-08-09T14:09:03.791Z,3.53
2022-08-09T14:11:46.942Z,4.53
2022-08-09T14:14:24.762Z,5.88
2022-08-09T14:17:02.407Z,3.28
2022-08-09T14:19:37.912Z,4.40
2022-08-09T14:22:11.876Z,2.53
2022-08-09T14:24:47.138Z,2.88
2022-08-09T14:27:27.754Z,3.03
2022-08-09T14:30:36.935Z,3.53
2022-08-09T14:33:11.158Z,2.90
2022-08-09T14:35:53.015Z,2.90
2022-08-09T14:38:27.560Z,2.78
2022-08-09T14:41:26.570Z,3.92
2022-08-09T14:43:57.580Z,3.38
2022-08-09T14:46:54.919Z,3.08
2022-08-09T14:49:28.953Z,3.13
2022-08-09T14:52:08.953Z,3.40
2022-08-09T14:54:43.157Z,3.70
2022-08-09T14:57:17.864Z,2.33
2022-08-09T14:59:51.981Z,2.75
2022-08-09T15:02:26.261Z,2.95
2022-08-09T15:05:01.840Z,2.80
2022-08-09T15:07:36.518Z,2.78
2022-08-09T15:10:14.217Z,2.53
2022-08-09T15:12:48.873Z,3.15
2022-08-09T15:15:24.427Z,3.13
2022-08-09T15:18:02.631Z,2.63
2022-08-09T15:21:57.166Z,2.60
2022-08-09T15:24:01.337Z,2.65
2022-08-09T15:26:30.755Z,4.82
2022-08-09T15:29:06.503Z,4.97
2022-08-09T15:31:42.306Z,3.40
2022-08-09T15:34:33.949Z,2.55
2022-08-09T15:37:37.910Z,3.22
2022-08-09T15:40:21.666Z,3.40
2022-08-09T15:42:59.612Z,3.05
2022-08-09T15:46:07.491Z,3.17
2022-08-09T15:48:29.072Z,2.90
2022-08-09T15:51:11.490Z,3.70
2022-08-09T15:56:43.838Z,4.40
2022-08-09T15:59:18.997Z,2.70
2022-08-09T16:01:53.039Z,2.95
2022-08-09T16:04:27.218Z,3.28
2022-08-09T16:07:03.517Z,3.65
2022-08-09T16:10:02.329Z,4.20
2022-08-09T16:12:35.696Z,2.70
2022-08-09T16:16:11.679Z,2.60
2022-08-09T16:18:10.284Z,3.60
2022-08-09T16:20:44.285Z,3.20
2022-08-09T16:23:21.825Z,3.95
2022-08-09T16:26:02.578Z,3.65
2022-08-09T16:28:36.767Z,3.03
2022-08-09T16:31:16.165Z,5.57
2022-08-09T16:33:50.398Z,4.95
2022-08-09T16:36:26.693Z,4.22
2022-08-09T16:39:01.259Z,3.70
2022-08-09T16:42:02.254Z,2.92
2022-08-09T16:44:31.810Z,2.85
2022-08-09T16:48:41.612Z,2.63
2022-08-09T16:52:54.108Z,5.15
2022-08-09T16:55:31.524Z,3.05
2022-08-09T16:58:23.828Z,3.17
2022-08-09T17:00:58.448Z,5.78
2022-08-09T17:03:32.996Z,6.35
2022-08-09T17:06:31.743Z,2.90
2022-08-09T17:09:16.265Z,4.32
2022-08-09T17:11:56.671Z,2.88
2022-08-09T17:14:32.165Z,4.38
2022-08-09T17:17:12.895Z,3.38
2022-08-09T17:22:54.254Z,2.67
2022-08-09T17:25:30.403Z,3.97
2022-08-09T17:28:06.408Z,3.70
2022-08-09T17:30:42.111Z,3.42
2022-08-09T17:33:23.163Z,3.50
2022-08-09T17:35:58.117Z,4.90
2022-08-09T17:38:37.202Z,5.05
2022-08-09T17:41:13.859Z,4.25
2022-08-09T17:43:50.920Z,4.10
2022-08-09T17:46:55.425Z,7.68
2022-08-09T17:49:30.381Z,8.65
2022-08-09T17:52:05.494Z,10.60
2022-08-09T17:54:39.580Z,6.03
2022-08-09T17:57:20.750Z,4.70
2022-08-09T18:00:10.695Z,6.80
2022-08-09T18:02:58.080Z,4.90
2022-08-09T18:05:43.655Z,5.45
2022-08-09T18:08:17.970Z,3.65
2022-08-09T18:11:02.117Z,5.90
2022-08-09T18:13:43.141Z,5.35
2022-08-09T18:16:30.954Z,5.22
2022-08-09T18:20:56.513Z,4.93
2022-08-09T18:22:01.052Z,8.25
2022-08-09T18:24:35.110Z,7.22
2022-08-09T18:27:09.951Z,7.10
2022-08-09T18:30:39.731Z,6.82
2022-08-09T18:32:41.652Z,5.20
2022-08-09T18:35:17.044Z,6.97
2022-08-09T18:37:54.870Z,7.47
2022-08-09T18:40:29.112Z,6.07
2022-08-09T18:43:03.667Z,5.32
2022-08-09T18:46:51.209Z,4.85
2022-08-09T18:48:32.783Z,8.57
2022-08-09T18:51:08.454Z,4.78
2022-08-09T18:54:00.781Z,6.38
2022-08-09T18:56:36.544Z,10.48
2022-08-09T18:59:10.589Z,9.13
2022-08-09T19:01:46.237Z,8.25
2022-08-09T19:04:34.490Z,12.73
2022-08-09T19:07:10.783Z,9.57
2022-08-09T19:10:14.709Z,12.48
2022-08-09T19:12:40.754Z,12.30
2022-08-09T19:15:19.827Z,11.30
2022-08-09T19:17:58.254Z,9.80
2022-08-09T19:20:34.139Z,5.95
2022-08-09T19:23:16.497Z,12.10
2022-08-09T19:26:02.114Z,8.18
2022-08-09T19:28:42.557Z,8.43
2022-08-09T19:31:23.504Z,10.07
2022-08-09T19:33:57.891Z,10.45
2022-08-09T19:36:32.758Z,11.52
2022-08-09T19:39:08.724Z,10.63
2022-08-09T19:41:42.672Z,13.00
2022-08-09T19:44:17.623Z,9.63
2022-08-09T19:46:54.172Z,11.73
2022-08-09T19:50:06.646Z,10.77
2022-08-09T19:52:22.338Z,12.73
2022-08-09T19:54:59.647Z,11.13
2022-08-09T19:57:35.217Z,9.60
2022-08-09T20:00:10.661Z,7.90
2022-08-09T20:04:17.414Z,9.40
2022-08-09T20:05:46.905Z,10.20
2022-08-09T20:08:35.101Z,10.57
2022-08-09T20:11:11.856Z,9.43
2022-08-09T20:13:54.328Z,8.45
2022-08-09T20:16:38.148Z,10.70
2022-08-09T20:19:48.517Z,9.15
2022-08-09T20:22:16.492Z,9.25
2022-08-09T20:24:54.379Z,9.07
2022-08-09T20:27:30.061Z,10.82
2022-08-09T20:30:04.213Z,9.48
2022-08-09T20:32:39.082Z,8.02
2022-08-09T20:35:14.318Z,7.60
2022-08-09T20:38:20.730Z,7.25
2022-08-09T20:40:44.517Z,10.00
2022-08-09T20:43:25.348Z,7.22
2022-08-09T20:46:33.098Z,7.65
2022-08-09T20:48:53.864Z,12.55
2022-08-09T20:51:28.362Z,11.48
2022-08-09T20:54:17.002Z,11.18
2022-08-09T20:56:53.871Z,8.60
2022-08-09T21:00:20.025Z,9.30
2022-08-09T21:02:23.857Z,11.07
2022-08-09T21:05:57.978Z,9.32
2022-08-09T21:10:35.701Z,11.52
2022-08-09T21:13:12.407Z,7.88
2022-08-09T21:15:52.086Z,8.90
2022-08-09T21:18:29.410Z,9.60
2022-08-09T21:21:17.117Z,12.23
2022-08-09T21:23:51.828Z,8.80
2022-08-09T21:26:25.943Z,8.55
2022-08-09T21:29:00.021Z,8.32
2022-08-09T21:31:48.592Z,8.93
2022-08-09T21:34:29.760Z,11.57
2022-08-09T21:37:03.740Z,10.23
2022-08-09T21:39:53.044Z,12.18
2022-08-09T21:42:28.663Z,7.22
2022-08-09T21:45:03.087Z,7.88
2022-08-09T21:47:39.844Z,10.32
2022-08-09T21:50:22.213Z,7.50
2022-08-09T21:52:57.518Z,8.43
2022-08-09T21:55:31.793Z,9.05
2022-08-09T21:58:08.161Z,8.00
2022-08-09T22:00:48.781Z,11.25
2022-08-09T22:03:28.208Z,7.70
2022-08-09T22:06:03.410Z,12.40
2022-08-09T22:08:37.486Z,10.63
2022-08-09T22:12:05.759Z,8.30
2022-08-09T22:14:06.188Z,8.63
2022-08-09T22:16:47.678Z,8.25
2022-08-09T22:19:58.840Z,10.48
2022-08-09T22:22:18.359Z,6.95
2022-08-09T22:26:06.785Z,7.82
2022-08-09T22:27:48.137Z,7.13
2022-08-09T22:30:26.342Z,8.05
2022-08-09T22:33:09.498Z,7.68
2022-08-09T22:36:01.460Z,8.38
2022-08-09T22:38:37.481Z,8.80
2022-08-09T22:41:12.944Z,8.43
2022-08-09T22:44:01.182Z,9.05
2022-08-09T22:48:13.618Z,6.97
2022-08-09T22:49:36.741Z,9.38
2022-08-09T22:52:17.903Z,11.50
2022-08-09T22:54:53.827Z,7.68
2022-08-09T22:57:35.686Z,7.80
2022-08-09T23:00:12.078Z,10.55
2022-08-09T23:02:46.944Z,8.10
2022-08-09T23:05:22.049Z,10.02
2022-08-09T23:08:22.408Z,8.55
2022-08-09T23:11:03.658Z,8.73
2022-08-09T23:13:37.729Z,6.22
2022-08-09T23:16:13.060Z,9.43
2022-08-09T23:18:47.130Z,7.32
2022-08-09T23:21:25.066Z,7.60
2022-08-09T23:24:06.354Z,8.35
2022-08-09T23:26:41.733Z,8.60
2022-08-09T23:29:15.933Z,7.47
2022-08-09T23:31:54.228Z,8.93
2022-08-09T23:34:28.804Z,6.85
2022-08-09T23:37:03.927Z,7.18
2022-08-09T23:39:39.588Z,8.48
2022-08-09T23:42:13.634Z,9.32
2022-08-09T23:44:48.195Z,9.27
2022-08-09T23:47:22.227Z,7.05
2022-08-09T23:49:56.287Z,7.63
2022-08-09T23:52:30.951Z,9.43
2022-08-09T23:55:08.462Z,6.97
2022-08-09T23:58:07.235Z,6.38
